Time;durP1;ratioP1;P1;durP2;ratioP2;P2;SDS_P1;SDS_P2;PMS_P1;PMS_P2;Temp;Humidity;BMP_temperature;BMP_pressure;BME280_temperature;BME280_humidity;BME280_pressure;Samples;Min_cycle;Max_cycle;Signal;HPM_P1;HPM_P2
2024/01/02 00:02:13;;;;;;;42.20;21.40;;;;;;;4.61;100.00;99729.40;105597;1253;97781;-77
2024/01/02 00:04:59;;;;;;;39.40;20.50;;;;;;;4.58;100.00;99731.98;105630;1256;97452;-78
2024/01/02 00:07:45;;;;;;;41.60;21.40;;;;;;;4.57;100.00;99732.30;105715;1253;96419;-76
2024/01/02 00:10:31;;;;;;;46.90;22.10;;;;;;;4.57;100.00;99731.28;105665;1253;101603;-77
2024/01/02 00:13:16;;;;;;;44.30;21.90;;;;;;;4.56;100.00;99735.20;105588;1257;100375;-77
2024/01/02 00:16:02;;;;;;;42.70;20.20;;;;;;;4.57;100.00;99734.63;105800;1254;98659;-78
2024/01/02 00:18:48;;;;;;;35.00;19.50;;;;;;;4.58;100.00;99741.15;105777;1252;96980;-77
2024/01/02 00:21:33;;;;;;;39.20;20.30;;;;;;;4.59;100.00;99736.25;105770;1258;96807;-78
2024/01/02 00:24:19;;;;;;;43.50;21.50;;;;;;;4.61;100.00;99732.73;105755;1256;101023;-78
2024/01/02 00:27:04;;;;;;;44.10;21.90;;;;;;;4.64;100.00;99731.70;105699;1258;100318;-77
2024/01/02 00:29:50;;;;;;;45.60;23.50;;;;;;;4.63;100.00;99730.45;105838;1256;99038;-78
2024/01/02 00:32:35;;;;;;;46.00;22.30;;;;;;;4.64;100.00;99731.48;105938;1257;96541;-78
2024/01/02 00:35:21;;;;;;;44.40;22.40;;;;;;;4.65;100.00;99733.80;105873;1257;96545;-79
2024/01/02 00:38:10;;;;;;;47.50;22.90;;;;;;;4.65;100.00;99731.05;105749;1258;100702;-78
2024/01/02 00:40:56;;;;;;;42.20;21.30;;;;;;;4.65;100.00;99731.55;105777;1254;99171;-77
2024/01/02 00:43:41;;;;;;;46.30;22.90;;;;;;;4.66;100.00;99732.81;105874;1256;97765;-78
2024/01/02 00:46:27;;;;;;;44.40;20.90;;;;;;;4.68;100.00;99731.40;105806;1258;97779;-78
2024/01/02 00:49:12;;;;;;;44.60;21.80;;;;;;;4.70;100.00;99731.70;105852;1254;97155;-78
2024/01/02 00:51:58;;;;;;;63.00;29.70;;;;;;;4.72;100.00;99735.09;105908;1254;100108;-77
2024/01/02 00:54:43;;;;;;;44.40;23.10;;;;;;;4.73;100.00;99736.02;105952;1256;100388;-78
2024/01/02 00:57:29;;;;;;;48.60;21.80;;;;;;;4.72;100.00;99736.25;105960;1258;97834;-77
2024/01/02 01:00:15;;;;;;;43.20;21.00;;;;;;;4.73;100.00;99736.87;105915;1253;97468;-78
2024/01/02 01:03:01;;;;;;;40.70;21.50;;;;;;;4.75;100.00;99736.30;105839;1255;96561;-77
2024/01/02 01:05:46;;;;;;;42.60;23.00;;;;;;;4.79;100.00;99735.33;105918;1258;100951;-78
2024/01/02 01:08:32;;;;;;;38.70;20.40;;;;;;;4.83;100.00;99735.25;105959;1258;100431;-78
2024/01/02 01:11:18;;;;;;;37.90;19.10;;;;;;;4.84;100.00;99731.73;105899;1258;97785;-78
2024/01/02 01:14:04;;;;;;;37.60;18.80;;;;;;;4.84;100.00;99727.85;105835;1258;96625;-78
2024/01/02 01:16:50;;;;;;;36.90;18.10;;;;;;;4.85;100.00;99725.49;105853;1253;98306;-77
2024/01/02 01:19:36;;;;;;;34.10;17.30;;;;;;;4.86;100.00;99725.48;106035;1258;100680;-79
2024/01/02 01:22:21;;;;;;;34.20;16.70;;;;;;;4.87;100.00;99726.56;105684;1258;100357;-78
2024/01/02 01:25:07;;;;;;;36.00;16.20;;;;;;;4.88;100.00;99725.59;105881;1255;98985;-78
2024/01/02 01:27:52;;;;;;;32.80;16.50;;;;;;;4.90;100.00;99724.84;105995;1254;96590;-78
2024/01/02 01:30:38;;;;;;;29.40;15.30;;;;;;;4.92;100.00;99722.67;105740;1256;97128;-78
2024/01/02 01:33:25;;;;;;;29.20;14.90;;;;;;;4.93;100.00;99722.60;105808;1257;101251;-79
2024/01/02 01:36:10;;;;;;;32.70;15.00;;;;;;;4.94;100.00;99725.12;105865;1255;100365;-79
2024/01/02 01:38:56;;;;;;;26.00;14.00;;;;;;;4.96;100.00;99725.65;105858;1252;99093;-78
2024/01/02 01:41:41;;;;;;;31.70;14.00;;;;;;;4.96;100.00;99723.09;105684;1255;97212;-78
2024/01/02 01:44:27;;;;;;;28.10;13.40;;;;;;;4.97;100.00;99722.83;105934;1258;97491;-79
2024/01/02 01:47:13;;;;;;;28.30;14.00;;;;;;;4.99;100.00;99719.97;105982;1256;101065;-79
2024/01/02 01:49:59;;;;;;;28.70;12.20;;;;;;;4.99;100.00;99723.81;105800;1254;99162;-78
2024/01/02 01:52:46;;;;;;;24.30;11.90;;;;;;;4.99;100.00;99725.93;105889;1256;98464;-79
2024/01/02 01:55:32;;;;;;;24.00;13.40;;;;;;;5.00;100.00;99727.30;105911;1255;96673;-79
2024/01/02 01:58:18;;;;;;;27.80;12.60;;;;;;;5.01;100.00;99727.66;106028;1254;96511;-78
2024/01/02 02:01:03;;;;;;;25.50;11.20;;;;;;;5.03;100.00;99722.80;105793;1255;100076;-79
2024/01/02 02:03:49;;;;;;;27.40;11.70;;;;;;;5.05;100.00;99724.06;106014;1258;100624;-78
2024/01/02 02:06:34;;;;;;;28.30;12.60;;;;;;;5.04;100.00;99731.55;106102;1253;99124;-77
2024/01/02 02:09:20;;;;;;;18.20;9.80;;;;;;;5.04;100.00;99727.17;105882;1258;96597;-80
2024/01/02 02:12:07;;;;;;;24.20;11.20;;;;;;;5.03;100.00;99729.06;105735;1255;96561;-79
2024/01/02 02:14:53;;;;;;;20.80;11.00;;;;;;;5.03;100.00;99726.24;105974;1257;100966;-78
2024/01/02 02:17:39;;;;;;;26.20;11.20;;;;;;;5.04;100.00;99726.31;105531;1258;99139;-78
2024/01/02 02:20:24;;;;;;;22.90;10.20;;;;;;;5.04;100.00;99726.80;105577;1259;98423;-78
2024/01/02 02:23:09;;;;;;;26.70;12.80;;;;;;;5.04;100.00;99723.61;105678;1258;96710;-78
2024/01/02 02:25:56;;;;;;;25.60;11.00;;;;;;;5.04;100.00;99723.75;106293;1254;96964;-79
2024/01/02 02:28:42;;;;;;;24.00;11.70;;;;;;;5.07;100.00;99720.88;105833;1257;100047;-78
2024/01/02 02:31:27;;;;;;;23.10;10.30;;;;;;;5.08;100.00;99723.36;105781;1255;100051;-78
2024/01/02 02:34:13;;;;;;;21.90;11.70;;;;;;;5.09;100.00;99725.73;106524;1258;97732;-77
2024/01/02 02:36:58;;;;;;;28.20;12.00;;;;;;;5.10;100.00;99723.30;105736;1255;97806;-78
2024/01/02 02:39:44;;;;;;;21.60;12.80;;;;;;;5.12;100.00;99722.37;105557;1258;96806;-79
2024/01/02 02:42:29;;;;;;;24.50;12.20;;;;;;;5.15;100.00;99719.93;105808;1258;100011;-78
2024/01/02 02:45:15;;;;;;;22.60;10.80;;;;;;;5.15;100.00;99720.36;105688;1259;99621;-78
2024/01/02 02:48:01;;;;;;;25.80;11.30;;;;;;;5.16;100.00;99723.48;105728;1253;98194;-78
2024/01/02 02:50:46;;;;;;;20.50;11.50;;;;;;;5.16;100.00;99720.86;105751;1253;97532;-78
2024/01/02 02:53:31;;;;;;;23.00;11.80;;;;;;;5.15;100.00;99721.26;105754;1258;96668;-78
2024/01/02 02:56:17;;;;;;;22.00;10.60;;;;;;;5.15;100.00;99719.49;105682;1257;100054;-77
2024/01/02 02:59:03;;;;;;;19.80;9.90;;;;;;;5.17;100.00;99718.63;105781;1258;100558;-78
2024/01/02 03:01:48;;;;;;;20.90;9.80;;;;;;;5.16;100.00;99718.33;105846;1252;98190;-77
2024/01/02 03:04:34;;;;;;;23.10;10.40;;;;;;;5.16;100.00;99714.85;105931;1257;96580;-77
2024/01/02 03:07:20;;;;;;;23.90;10.00;;;;;;;5.15;100.00;99719.46;105757;1254;97370;-78
2024/01/02 03:10:06;;;;;;;18.20;10.00;;;;;;;5.17;100.00;99718.92;105819;1254;101401;-77
2024/01/02 03:12:52;;;;;;;24.40;11.10;;;;;;;5.18;100.00;99717.98;105849;1252;99137;-77
2024/01/02 03:15:37;;;;;;;25.20;10.50;;;;;;;5.18;100.00;99713.70;105563;1256;98846;-77
2024/01/02 03:18:23;;;;;;;20.80;10.40;;;;;;;5.18;100.00;99713.87;105652;1253;97113;-77
2024/01/02 03:21:10;;;;;;;20.80;10.30;;;;;;;5.19;100.00;99712.73;105621;1256;96848;-77
2024/01/02 03:23:56;;;;;;;22.90;11.00;;;;;;;5.20;100.00;99713.86;105822;1255;100652;-78
2024/01/02 03:26:41;;;;;;;20.70;10.10;;;;;;;5.20;100.00;99714.98;105801;1253;99173;-78
2024/01/02 03:29:27;;;;;;;18.90;10.50;;;;;;;5.21;100.00;99719.70;105770;1254;171422;-78
2024/01/02 03:32:13;;;;;;;23.30;11.10;;;;;;;5.22;100.00;99715.54;105719;1254;96621;-77
2024/01/02 03:34:58;;;;;;;19.60;10.80;;;;;;;5.21;100.00;99716.11;105637;1258;97140;-78
2024/01/02 03:37:44;;;;;;;21.10;10.90;;;;;;;5.23;100.00;99711.89;105714;1255;101285;-78
2024/01/02 03:40:29;;;;;;;23.80;11.80;;;;;;;5.24;100.00;99710.48;105784;1255;99253;-78
2024/01/02 03:43:15;;;;;;;26.10;12.60;;;;;;;5.25;100.00;99709.72;105940;1254;98695;-78
2024/01/02 03:46:00;;;;;;;22.40;11.60;;;;;;;5.25;100.00;99710.74;105873;1253;97075;-79
2024/01/02 03:48:46;;;;;;;25.90;11.90;;;;;;;5.25;100.00;99707.59;105956;1256;97229;-78
2024/01/02 03:51:31;;;;;;;25.80;12.20;;;;;;;5.24;100.00;99710.02;105803;1260;101275;-78
2024/01/02 03:54:17;;;;;;;25.50;12.60;;;;;;;5.23;100.00;99709.63;105862;1256;100078;-78
2024/01/02 03:57:02;;;;;;;24.70;13.40;;;;;;;5.21;100.00;99710.66;105867;1256;98967;-78
2024/01/02 03:59:48;;;;;;;24.10;14.20;;;;;;;5.21;100.00;99710.70;105861;1256;96518;-78
2024/01/02 04:02:33;;;;;;;27.10;13.70;;;;;;;5.20;100.00;99709.98;105803;1256;97137;-78
2024/01/02 04:05:19;;;;;;;24.90;12.70;;;;;;;5.19;100.00;99711.65;105843;1259;100160;-77
2024/01/02 04:08:05;;;;;;;21.00;12.10;;;;;;;5.18;100.00;99714.35;105772;1254;100844;-78
2024/01/02 04:10:51;;;;;;;26.90;15.60;;;;;;;5.20;100.00;99712.44;105806;1262;99079;-78
2024/01/02 04:13:36;;;;;;;23.40;13.00;;;;;;;5.20;100.00;99710.98;105702;1256;96648;-77
2024/01/02 04:16:22;;;;;;;31.60;14.10;;;;;;;5.22;100.00;99711.65;105933;1256;99557;-78
2024/01/02 04:19:08;;;;;;;22.70;12.40;;;;;;;5.22;100.00;99711.86;105905;1255;101307;-77
2024/01/02 04:21:53;;;;;;;27.90;13.70;;;;;;;5.20;100.00;99715.25;105832;1257;100774;-78
2024/01/02 04:24:38;;;;;;;23.40;12.30;;;;;;;5.18;100.00;99717.45;105730;1256;97767;-77
2024/01/02 04:27:24;;;;;;;29.30;14.00;;;;;;;5.18;100.00;99717.39;105805;1256;96606;-78
2024/01/02 04:30:11;;;;;;;26.40;11.90;;;;;;;5.20;100.00;99712.06;105870;1257;96588;-77
2024/01/02 04:32:57;;;;;;;21.80;12.10;;;;;;;5.20;100.00;99708.98;105953;1256;100652;-78
2024/01/02 04:35:42;;;;;;;23.90;13.80;;;;;;;5.19;100.00;99709.81;105768;1257;99148;-78
2024/01/02 04:38:28;;;;;;;23.30;13.00;;;;;;;5.18;100.00;99712.13;105985;1256;97788;-77
2024/01/02 04:41:14;;;;;;;24.80;13.70;;;;;;;5.18;100.00;99709.66;105586;1259;96284;-77
2024/01/02 04:44:00;;;;;;;23.10;13.70;;;;;;;5.19;100.00;99708.23;105737;1259;96403;-78
2024/01/02 04:46:46;;;;;;;26.70;14.60;;;;;;;5.21;100.00;99708.61;105702;1254;101208;-77
2024/01/02 04:49:31;;;;;;;23.30;14.20;;;;;;;5.22;100.00;99709.89;105779;1258;100353;-78
2024/01/02 04:52:17;;;;;;;26.20;14.40;;;;;;;5.21;100.00;99706.05;105789;1258;97722;-78
2024/01/02 04:55:03;;;;;;;21.20;14.00;;;;;;;5.21;100.00;99708.05;105983;1256;96589;-77
2024/01/02 04:57:49;;;;;;;24.60;14.70;;;;;;;5.20;100.00;99712.03;105989;1257;96635;-78
2024/01/02 05:00:34;;;;;;;29.10;15.00;;;;;;;5.19;100.00;99715.30;105950;1256;101728;-79
2024/01/02 05:03:20;;;;;;;25.30;15.00;;;;;;;5.19;100.00;99714.80;105880;1257;99065;-78
2024/01/02 05:06:06;;;;;;;29.10;16.70;;;;;;;5.19;100.00;99711.28;105889;1254;97759;-78
2024/01/02 05:08:51;;;;;;;29.40;15.70;;;;;;;5.19;100.00;99709.89;105879;1257;97987;-77
2024/01/02 05:11:38;;;;;;;26.40;14.50;;;;;;;5.19;100.00;99712.70;105928;1261;98483;-77
2024/01/02 05:14:23;;;;;;;22.20;14.80;;;;;;;5.19;100.00;99714.59;105845;1258;100028;-79
2024/01/02 05:17:09;;;;;;;26.00;14.60;;;;;;;5.20;100.00;99713.26;105908;1256;100480;-78
2024/01/02 05:19:55;;;;;;;23.70;13.60;;;;;;;5.19;100.00;99716.61;106229;1258;97762;-78
2024/01/02 05:22:40;;;;;;;22.40;12.50;;;;;;;5.18;100.00;99715.30;105820;1258;96601;-78
2024/01/02 05:25:26;;;;;;;24.40;12.40;;;;;;;5.17;100.00;99719.28;105833;1258;97112;-79
2024/01/02 05:28:11;;;;;;;21.50;13.20;;;;;;;5.19;100.00;99722.77;105805;1258;100862;-77
2024/01/02 05:30:57;;;;;;;20.80;12.10;;;;;;;5.20;100.00;99721.60;106160;1257;100341;-79
2024/01/02 05:33:42;;;;;;;20.60;12.60;;;;;;;5.20;100.00;99720.50;105729;1260;97739;-77
2024/01/02 05:36:28;;;;;;;23.80;13.50;;;;;;;5.20;100.00;99724.94;105845;1257;96983;-77
2024/01/02 05:39:14;;;;;;;20.30;12.90;;;;;;;5.22;100.00;99724.57;105784;1258;97196;-78
2024/01/02 05:41:59;;;;;;;22.70;12.50;;;;;;;5.22;100.00;99726.66;105801;1256;101318;-78
2024/01/02 05:44:44;;;;;;;21.60;12.90;;;;;;;5.20;100.00;99728.29;106016;1253;99062;-78
2024/01/02 05:47:30;;;;;;;20.70;12.50;;;;;;;5.20;100.00;99727.23;105864;1257;98435;-78
2024/01/02 05:50:16;;;;;;;26.70;12.80;;;;;;;5.20;100.00;99725.47;105860;1259;97040;-77
2024/01/02 05:53:01;;;;;;;20.40;12.30;;;;;;;5.20;100.00;99722.99;105779;1254;96526;-77
2024/01/02 05:55:47;;;;;;;19.60;11.00;;;;;;;5.21;100.00;99723.98;105745;1253;99964;-78
2024/01/02 05:58:32;;;;;;;18.50;12.00;;;;;;;5.20;100.00;99727.92;105815;1260;99760;-78
2024/01/02 06:01:18;;;;;;;18.20;10.80;;;;;;;5.20;100.00;99729.23;105689;1268;98946;-77
2024/01/02 06:04:04;;;;;;;19.50;13.30;;;;;;;5.19;100.00;99733.71;105836;1256;96637;-78
2024/01/02 06:06:49;;;;;;;17.60;11.20;;;;;;;5.19;100.00;99735.91;105930;1254;97221;-77
2024/01/02 06:09:35;;;;;;;20.20;12.00;;;;;;;5.18;100.00;99736.51;105718;1255;100497;-76
2024/01/02 06:12:20;;;;;;;21.00;12.50;;;;;;;5.17;100.00;99738.08;105621;1267;99186;-77
2024/01/02 06:15:06;;;;;;;17.50;12.10;;;;;;;5.17;100.00;99739.33;105682;1259;97762;-77
2024/01/02 06:17:52;;;;;;;18.10;12.10;;;;;;;5.16;100.00;99744.70;105664;1254;96610;-77
2024/01/02 06:20:37;;;;;;;19.40;11.90;;;;;;;5.15;100.00;99744.95;105717;1253;96603;-78
2024/01/02 06:23:23;;;;;;;21.80;12.20;;;;;;;5.17;100.00;99742.48;105750;1255;101315;-77
2024/01/02 06:26:08;;;;;;;17.50;12.30;;;;;;;5.18;100.00;99738.99;105711;1258;99817;-77
2024/01/02 06:28:54;;;;;;;18.30;11.50;;;;;;;5.18;100.00;99732.09;105780;1259;97692;-77
2024/01/02 06:31:40;;;;;;;17.80;12.20;;;;;;;5.20;100.00;99732.38;105766;1270;96671;-77
2024/01/02 06:34:25;;;;;;;17.20;11.30;;;;;;;5.23;100.00;99730.84;105853;1254;97104;-77
2024/01/02 06:37:11;;;;;;;16.90;11.00;;;;;;;5.25;100.00;99732.65;105713;1258;100196;-77
2024/01/02 06:39:57;;;;;;;17.30;10.10;;;;;;;5.26;100.00;99736.33;105685;1257;99097;-78
2024/01/02 06:42:43;;;;;;;18.80;13.10;;;;;;;5.25;100.00;99744.33;105573;1260;97791;-78
2024/01/02 06:45:28;;;;;;;33.20;21.90;;;;;;;5.25;100.00;99740.84;105917;1254;96547;-79
2024/01/02 06:48:14;;;;;;;24.50;14.80;;;;;;;5.27;100.00;99743.06;106285;1256;97102;-79
2024/01/02 06:51:00;;;;;;;17.50;12.20;;;;;;;5.29;100.00;99741.63;106293;1254;99999;-80
2024/01/02 06:53:46;;;;;;;17.60;11.80;;;;;;;5.28;100.00;99735.89;106230;1260;99124;-79
2024/01/02 06:56:32;;;;;;;17.60;11.90;;;;;;;5.29;100.00;99734.38;106060;1255;98546;-79
2024/01/02 06:59:18;;;;;;;15.00;10.10;;;;;;;5.31;100.00;99736.64;106202;1257;96438;-79
2024/01/02 07:02:04;;;;;;;15.80;10.80;;;;;;;5.34;100.00;99737.08;106169;1255;98024;-79
2024/01/02 07:04:49;;;;;;;14.50;10.20;;;;;;;5.37;100.00;99737.11;106068;1252;100630;-78
2024/01/02 07:07:35;;;;;;;14.00;9.70;;;;;;;5.37;100.00;99735.77;105749;1267;99146;-77
2024/01/02 07:10:20;;;;;;;17.10;10.00;;;;;;;5.34;100.00;99735.55;105724;1267;98944;-78
2024/01/02 07:13:07;;;;;;;15.90;11.20;;;;;;;5.34;100.00;99736.39;106011;1254;96588;-79
2024/01/02 07:15:52;;;;;;;15.00;10.90;;;;;;;5.37;100.00;99736.77;106113;1258;97194;-79
2024/01/02 07:18:38;;;;;;;15.00;10.70;;;;;;;5.38;100.00;99733.55;106162;1254;100744;-78
2024/01/02 07:21:24;;;;;;;18.00;11.40;;;;;;;5.37;100.00;99733.61;106102;1254;99084;-79
2024/01/02 07:24:09;;;;;;;18.50;12.30;;;;;;;5.35;100.00;99731.93;105751;1254;97751;-78
2024/01/02 07:26:55;;;;;;;18.00;11.10;;;;;;;5.35;100.00;99736.67;105710;1261;96603;-78
2024/01/02 07:29:40;;;;;;;17.50;12.00;;;;;;;5.37;100.00;99734.14;105693;1257;97584;-77
2024/01/02 07:32:26;;;;;;;21.20;12.40;;;;;;;5.40;100.00;99736.04;105790;1257;100848;-78
2024/01/02 07:35:11;;;;;;;20.10;12.30;;;;;;;5.42;100.00;99735.15;105786;1257;99269;-78
2024/01/02 07:37:57;;;;;;;17.80;12.80;;;;;;;5.48;100.00;99736.96;105811;1253;98626;-78
2024/01/02 07:40:42;;;;;;;19.30;12.50;;;;;;;5.54;100.00;99738.02;105820;1257;96511;-79
2024/01/02 07:43:30;;;;;;;18.30;13.00;;;;;;;5.58;100.00;99740.98;105755;1254;97931;-78
2024/01/02 07:46:16;;;;;;;20.00;14.10;;;;;;;5.58;100.00;99738.80;105843;1257;100614;-80
2024/01/02 07:49:01;;;;;;;23.00;14.80;;;;;;;5.58;100.00;99736.47;105739;1257;99744;-79
2024/01/02 07:51:47;;;;;;;24.50;18.60;;;;;;;5.60;100.00;99731.11;105711;1254;97759;-78
2024/01/02 07:54:36;;;;;;;30.00;20.20;;;;;;;5.64;100.00;99731.42;105629;1258;97119;-78
2024/01/02 07:57:22;;;;;;;25.00;16.70;;;;;;;5.66;100.00;99739.08;105773;1257;97256;-78
2024/01/02 08:00:08;;;;;;;22.50;15.80;;;;;;;5.68;100.00;99740.63;105676;1257;100979;-78
2024/01/02 08:02:57;;;;;;;21.50;15.90;;;;;;;5.71;100.00;99736.89;105721;1254;99170;-78
2024/01/02 08:05:43;;;;;;;21.10;15.20;;;;;;;5.73;100.00;99735.77;105738;1254;98991;-79
2024/01/02 08:08:28;;;;;;;24.40;15.90;;;;;;;5.73;100.00;99736.67;105857;1256;96565;-77
2024/01/02 08:11:14;;;;;;;20.80;15.20;;;;;;;5.74;100.00;99740.92;105928;1258;97551;-79
2024/01/02 08:14:00;;;;;;;23.90;16.90;;;;;;;5.73;100.00;99743.24;105901;1254;100875;-79
2024/01/02 08:16:45;;;;;;;27.80;18.00;;;;;;;5.74;100.00;99748.13;106139;1254;99106;-89
2024/01/02 08:19:31;;;;;;;26.40;18.10;;;;;;;5.75;100.00;99742.80;106756;1260;98410;-88
2024/01/02 08:22:18;;;;;;;25.90;16.70;;;;;;;5.76;100.00;99743.60;106424;1269;97568;-86
2024/01/02 08:25:04;;;;;;;28.90;16.30;;;;;;;5.75;100.00;99746.23;106603;1254;97098;-84
2024/01/02 08:27:50;;;;;;;25.60;16.30;;;;;;;5.73;100.00;99745.73;106317;1254;101295;-84
2024/01/02 08:30:36;;;;;;;25.70;17.40;;;;;;;5.71;100.00;99743.94;106464;1254;99316;-82
2024/01/02 08:33:21;;;;;;;30.20;17.80;;;;;;;5.70;100.00;99738.36;106495;1260;98455;-81
2024/01/02 08:36:09;;;;;;;25.30;17.50;;;;;;;5.71;100.00;99734.66;106867;1254;96402;-81
2024/01/02 08:38:54;;;;;;;22.30;16.50;;;;;;;5.74;100.00;99736.56;106689;1258;96486;-80
2024/01/02 08:41:40;;;;;;;23.70;17.10;;;;;;;5.76;100.00;99737.42;106920;1254;100770;-80
2024/01/02 08:44:26;;;;;;;25.60;17.70;;;;;;;5.77;100.00;99735.40;106879;1254;99079;-82
2024/01/02 08:47:11;;;;;;;28.40;19.50;;;;;;;5.78;100.00;99735.61;106748;1257;99068;-84
2024/01/02 08:49:57;;;;;;;30.30;19.20;;;;;;;5.79;100.00;99736.50;105909;1257;97146;-77
2024/01/02 08:52:47;;;;;;;30.90;20.00;;;;;;;5.80;100.00;99740.61;105831;1258;97018;-84
2024/01/02 08:55:33;;;;;;;29.50;19.40;;;;;;;5.80;100.00;99741.88;106030;1257;100167;-80
2024/01/02 08:58:18;;;;;;;26.20;18.50;;;;;;;5.80;100.00;99745.42;106631;1257;99066;-79
2024/01/02 09:01:04;;;;;;;26.60;17.80;;;;;;;5.80;100.00;99749.14;106715;1254;98732;-81
2024/01/02 09:03:49;;;;;;;26.40;19.20;;;;;;;5.80;100.00;99747.55;106552;1254;96613;-81
2024/01/02 09:06:35;;;;;;;27.90;18.80;;;;;;;5.82;100.00;99748.94;106507;1257;97161;-80
2024/01/02 09:09:20;;;;;;;25.50;16.70;;;;;;;5.82;100.00;99749.77;106603;1255;101718;-82
2024/01/02 09:12:08;;;;;;;25.20;17.70;;;;;;;5.83;100.00;99753.63;106525;1260;99824;-82
2024/01/02 09:14:54;;;;;;;27.80;19.30;;;;;;;5.85;100.00;99752.99;106710;1260;97815;-81
2024/01/02 09:17:40;;;;;;;23.10;17.10;;;;;;;5.86;100.00;99752.36;106741;1254;96691;-82
2024/01/02 09:20:25;;;;;;;28.50;18.20;;;;;;;5.85;100.00;99754.27;106498;1254;95890;-77
2024/01/02 09:23:11;;;;;;;25.40;18.20;;;;;;;5.83;100.00;99755.95;105730;1254;100038;-77
2024/01/02 09:26:01;;;;;;;25.30;17.60;;;;;;;5.83;100.00;99757.90;105885;1257;99103;-77
2024/01/02 09:28:47;;;;;;;26.50;16.90;;;;;;;5.85;100.00;99760.50;105882;1254;97698;-78
2024/01/02 09:31:33;;;;;;;23.00;16.20;;;;;;;5.85;100.00;99758.84;105813;1258;96614;-82
2024/01/02 09:34:19;;;;;;;32.50;21.10;;;;;;;5.84;100.00;99761.66;105949;1256;97321;-78
2024/01/02 09:37:06;;;;;;;29.10;18.60;;;;;;;5.84;100.00;99758.45;105783;1256;101276;-79
2024/01/02 09:39:53;;;;;;;28.20;16.90;;;;;;;5.86;100.00;99755.05;105850;1252;100236;-78
2024/01/02 09:42:44;;;;;;;28.00;18.10;;;;;;;5.87;100.00;99756.14;105891;1257;97738;-78
2024/01/02 09:45:41;;;;;;;25.70;18.30;;;;;;;5.88;100.00;99755.66;105687;1254;96521;-78
2024/01/02 09:48:41;;;;;;;31.10;19.70;;;;;;;5.89;100.00;99759.44;105778;1254;97104;-79
2024/01/02 09:51:46;;;;;;;28.60;19.70;;;;;;;5.91;100.00;99760.83;105733;1254;100595;-78
2024/01/02 09:54:33;;;;;;;27.20;19.30;;;;;;;5.93;100.00;99760.55;106918;1254;100546;-88
2024/01/02 09:57:45;;;;;;;28.80;18.70;;;;;;;5.95;100.00;99766.29;106434;1257;97817;-84
2024/01/02 10:00:48;;;;;;;28.60;19.50;;;;;;;5.92;100.00;99767.67;106610;1259;96684;-84
2024/01/02 10:03:46;;;;;;;31.50;20.30;;;;;;;5.94;100.00;99763.66;106825;1257;96410;-80
2024/01/02 10:06:43;;;;;;;28.80;20.30;;;;;;;5.98;100.00;99759.27;106883;1254;100140;-79
2024/01/02 10:09:53;;;;;;;26.80;19.20;;;;;;;6.02;100.00;99753.58;106793;1257;100579;-79
2024/01/02 10:12:44;;;;;;;29.90;18.60;;;;;;;6.04;100.00;99749.37;106894;1257;98976;-80
2024/01/02 10:15:45;;;;;;;25.20;17.50;;;;;;;6.03;100.00;99741.66;106972;1254;96634;-80
2024/01/02 10:18:37;;;;;;;26.70;18.10;;;;;;;6.08;100.00;99738.77;106729;1254;96608;-80
2024/01/02 10:21:31;;;;;;;30.40;18.70;;;;;;;6.12;100.00;99730.91;106863;1257;100665;-81
2024/01/02 10:24:44;;;;;;;26.10;17.50;;;;;;;6.14;100.00;99726.61;106723;1253;100285;-80
2024/01/02 10:27:49;;;;;;;23.20;15.90;;;;;;;6.14;100.00;99726.02;106797;1257;99070;-80
2024/01/02 10:30:42;;;;;;;27.30;16.00;;;;;;;6.14;100.00;99727.45;106299;1257;96626;-80
2024/01/02 10:33:39;;;;;;;25.60;16.90;;;;;;;6.14;100.00;99726.21;106746;1254;97106;-81
2024/01/02 10:36:27;;;;;;;24.60;17.30;;;;;;;6.15;100.00;99725.08;106856;1254;100923;-80
2024/01/02 10:39:33;;;;;;;20.80;16.20;;;;;;;6.15;100.00;99719.77;106262;1260;100050;-80
2024/01/02 10:42:28;;;;;;;23.10;16.80;;;;;;;6.16;100.00;99710.23;106768;1252;97697;-80
2024/01/02 10:45:27;;;;;;;20.20;16.00;;;;;;;6.16;100.00;99705.63;106800;1254;96548;-80
2024/01/02 10:48:33;;;;;;;22.80;16.80;;;;;;;6.16;100.00;99703.98;107028;1253;96598;-80
2024/01/02 10:51:38;;;;;;;27.90;17.10;;;;;;;6.15;100.00;99703.21;106606;1254;100075;-81
2024/01/02 10:54:35;;;;;;;28.20;16.80;;;;;;;6.15;100.00;99698.59;106440;1257;99157;-84
2024/01/02 10:57:52;;;;;;;25.00;17.70;;;;;;;6.16;100.00;99696.89;106295;1254;97785;-84
2024/01/02 11:00:58;;;;;;;25.90;16.60;;;;;;;6.17;100.00;99699.97;106563;1253;96521;-83
2024/01/02 11:04:05;;;;;;;27.30;17.10;;;;;;;6.17;100.00;99700.66;106537;1254;96602;-83
2024/01/02 11:07:06;;;;;;;29.40;18.90;;;;;;;6.18;100.00;99697.23;106287;1253;100102;-85
2024/01/02 11:09:56;;;;;;;26.10;17.80;;;;;;;6.18;100.00;99690.61;106392;1254;100402;-83
2024/01/02 11:13:01;;;;;;;27.30;16.60;;;;;;;6.18;100.00;99691.55;106321;1254;97863;-81
2024/01/02 11:15:52;;;;;;;26.30;18.80;;;;;;;6.16;100.00;99689.77;106513;1254;96692;-85
2024/01/02 11:18:43;;;;;;;27.50;18.90;;;;;;;6.17;100.00;99686.67;106953;1260;96590;-84
2024/01/02 11:21:41;;;;;;;30.60;19.40;;;;;;;6.19;100.00;99682.38;106579;1257;100086;-81
2024/01/02 11:24:30;;;;;;;31.10;20.00;;;;;;;6.19;100.00;99677.54;106792;1254;100410;-83
2024/01/02 11:27:23;;;;;;;52.50;29.50;;;;;;;6.20;100.00;99671.92;107988;1257;97774;-83
2024/01/02 11:30:11;;;;;;;32.80;21.50;;;;;;;6.23;100.00;99670.92;106466;1254;96523;-84
2024/01/02 11:33:19;;;;;;;28.40;19.90;;;;;;;6.26;100.00;99665.48;106551;1254;96982;-84
2024/01/02 11:36:28;;;;;;;30.50;19.90;;;;;;;6.28;100.00;99662.14;106462;1256;100059;-83
2024/01/02 11:39:26;;;;;;;32.00;20.70;;;;;;;6.34;100.00;99660.95;106384;1255;100409;-83
2024/01/02 11:42:29;;;;;;;32.50;20.30;;;;;;;6.37;100.00;99660.25;106640;1254;97728;-81
2024/01/02 11:45:21;;;;;;;32.40;21.50;;;;;;;6.39;100.00;99656.23;106345;1255;96710;-84
2024/01/02 11:48:26;;;;;;;32.70;21.90;;;;;;;6.43;100.00;99649.70;106466;1260;96639;-81
2024/01/02 11:51:41;;;;;;;33.30;22.80;;;;;;;6.48;100.00;99645.96;107174;1254;101287;-81
2024/01/02 11:55:04;;;;;;;29.20;20.00;;;;;;;6.50;100.00;99646.89;108350;1253;99091;-80
2024/01/02 11:57:54;;;;;;;28.20;18.30;;;;;;;6.51;100.00;99641.80;106600;1254;97759;-81
2024/01/02 12:00:54;;;;;;;29.80;21.70;;;;;;;6.54;100.00;99635.58;106739;1254;96531;-81
2024/01/02 12:04:22;;;;;;;30.00;21.40;;;;;;;6.60;100.00;99631.55;106784;1254;96564;-81
2024/01/02 12:07:12;;;;;;;31.70;17.60;;;;;;;6.65;100.00;99630.03;106909;1252;100036;-80
2024/01/02 12:09:58;;;;;;;26.10;17.10;;;;;;;6.66;100.00;99628.85;106754;1254;99176;-82
2024/01/02 12:13:06;;;;;;;25.10;17.10;;;;;;;6.67;100.00;99621.71;106393;1255;98986;-82
2024/01/02 12:15:54;;;;;;;24.10;15.80;;;;;;;6.68;100.00;99616.84;106641;1254;96742;-86
2024/01/02 12:18:47;;;;;;;25.50;15.60;;;;;;;6.72;100.00;99614.73;106995;1254;96282;-86
2024/01/02 12:21:39;;;;;;;27.00;16.60;;;;;;;6.74;100.00;99609.52;106748;1254;101341;-82
2024/01/02 12:24:28;;;;;;;27.20;15.70;;;;;;;6.77;100.00;99604.22;106665;1254;99133;-79
2024/01/02 12:27:19;;;;;;;23.10;14.80;;;;;;;6.81;100.00;99602.31;106955;1254;97790;-79
2024/01/02 12:30:05;;;;;;;24.80;13.80;;;;;;;6.83;100.00;99601.92;106746;1254;96535;-79
2024/01/02 12:33:06;;;;;;;23.00;14.20;;;;;;;6.83;100.00;99602.17;107000;1252;97058;-80
2024/01/02 12:36:30;;;;;;;23.00;13.20;;;;;;;6.84;100.00;99596.57;107090;1252;100652;-80
2024/01/02 12:39:17;;;;;;;19.80;12.50;;;;;;;6.86;100.00;99594.80;107014;1254;99291;-79
2024/01/02 12:42:08;;;;;;;18.90;12.90;;;;;;;6.89;100.00;99596.71;106918;1254;97733;-80
2024/01/02 12:45:00;;;;;;;20.80;13.30;;;;;;;6.90;100.00;99592.63;107100;1253;96609;-79